Nippon Maru — JNNU — position and weather

sailwx.info

Track history (hours):
 
Tides and Currents Weather Stations Pressure Air Temp Water Temp Dewpoint Dewpoint Depression Visibility Wind Speed Wind Dir Waves Ship Positions

Nippon Maru

Last reported at 2017-Apr-27 10:26 UTC. Time now 2017-Apr-28 02:34 UTC.
Position N 35°03' E 139°37'.

Length 166 m; draft 6.5 m.

Type: Passenger vessel. MMSI: 431302000.

Date/timePositionNaut miles runAvg speedWind from/ knotsBaromVisibWave heightAir tempDewpointWater temp
2017-Apr-27 10:26N 35°03' E 139°37'817.0
2017-Apr-27 09:59N 35°08' E 139°44'714.9
2017-Apr-27 09:30N 35°14' E 139°46'612.5
2017-Apr-27 09:00N 35°20' E 139°42'714.0
2017-Apr-27 08:31N 35°27' E 139°41'2 4.2
2017-Apr-27 08:00N 35°27' E 139°39'0 0.0
2017-Apr-27 07:30N 35°27' E 139°39'0 0.0
2017-Apr-27 07:00N 35°27' E 139°39'0 0.0
2017-Apr-27 06:30N 35°27' E 139°39'0 0.0
2017-Apr-27 06:00N 35°27' E 139°39'0 0.0
2017-Apr-27 05:30N 35°27' E 139°39'0 0.0
2017-Apr-27 05:00N 35°27' E 139°39'0 0.0
2017-Apr-27 04:30N 35°27' E 139°39'0 0.0
2017-Apr-27 04:00N 35°27' E 139°39'0 0.0
2017-Apr-27 03:30N 35°27' E 139°39'0 0.0
2017-Apr-27 03:00N 35°27' E 139°39'0 0.0
2017-Apr-27 02:30N 35°27' E 139°39'0 0.0
2017-Apr-27 02:00N 35°27' E 139°39'0 0.0
2017-Apr-27 01:30N 35°27' E 139°39'0 0.0
2017-Apr-27 01:00N 35°27' E 139°39'0 0.0
2017-Apr-27 00:30N 35°27' E 139°39'0 0.0
2017-Apr-27 00:00N 35°27' E 139°39'1 2.2
2017-Apr-26 23:30N 35°27' E 139°40'3 6.7
2017-Apr-26 23:00N 35°25' E 139°43'611.6
2017-Apr-26 22:30N 35°19' E 139°44'510.9
2017-Apr-26 22:00N 35°14' E 139°47'611.1
2017-Apr-26 21:30N 35°09' E 139°46'28 3.5
2017-Apr-26 13:24N 35°12' E 139°12'5 6.7
2017-Apr-26 12:42N 35°14' E 139°17'8 6.9
2017-Apr-26 11:31N 35°14' E 139°27'011.2
2017-Apr-26 11:30N 35°14' E 139°28'6 7.7
2017-Apr-26 10:46N 35°10' E 139°32'6 9.9
2017-Apr-26 10:11N 35°06' E 139°37'615.0
2017-Apr-26 09:49N 35°04' E 139°43'8 1.5
2017-Apr-26 04:44N 34°60' E 139°51'0 0.0
2017-Apr-26 04:26N 34°60' E 139°51'0 0.0
2017-Apr-26 03:56N 34°60' E 139°51'0 0.0
2017-Apr-26 03:26N 34°60' E 139°51'0 0.0
2017-Apr-26 02:59N 34°60' E 139°51'1 1.2
2017-Apr-26 02:27N 35°00' E 139°51'3 7.2
2017-Apr-26 02:00N 35°01' E 139°47'713.3
2017-Apr-26 01:30N 34°56' E 139°41'816.5
2017-Apr-26 01:00N 34°50' E 139°34'7 0.2
2017-Apr-24 11:16N 34°56' E 139°29'411.8
2017-Apr-24 10:54N 34°59' E 139°33'512.2
2017-Apr-24 10:31N 35°02' E 139°37'612.5
2017-Apr-24 10:00N 35°07' E 139°43'612.6
2017-Apr-24 09:30N 35°12' E 139°46'612.4
2017-Apr-24 09:00N 35°18' E 139°44'713.8
2017-Apr-24 08:31N 35°25' E 139°42'3 6.9
2017-Apr-24 08:01N 35°27' E 139°39'0 0.1
2017-Apr-24 07:30N 35°27' E 139°39'0 0.0
2017-Apr-24 07:00N 35°27' E 139°39'0 0.0
2017-Apr-24 06:29N 35°27' E 139°39'0 0.0
2017-Apr-24 05:59N 35°27' E 139°39'0 0.0
2017-Apr-24 05:29N 35°27' E 139°39'0 0.0
2017-Apr-24 04:59N 35°27' E 139°39'0 0.0
2017-Apr-24 04:29N 35°27' E 139°39'0 0.0
2017-Apr-24 03:59N 35°27' E 139°39'0 0.0
2017-Apr-24 03:29N 35°27' E 139°39'0 0.0
2017-Apr-24 02:59N 35°27' E 139°39'0 0.0
2017-Apr-24 02:29N 35°27' E 139°39'0 0.0
2017-Apr-24 01:59N 35°27' E 139°39'0 0.0
2017-Apr-24 01:29N 35°27' E 139°39'0 0.0
2017-Apr-24 00:59N 35°27' E 139°39'0 0.0
2017-Apr-24 00:28N 35°27' E 139°39'0 0.1
2017-Apr-24 00:01N 35°27' E 139°39'1 2.3
2017-Apr-23 23:31N 35°27' E 139°40'3 6.2
2017-Apr-23 23:01N 35°25' E 139°43'5 9.0
2017-Apr-23 22:31N 35°20' E 139°43'611.4
2017-Apr-23 22:00N 35°15' E 139°47'611.5
2017-Apr-23 21:30N 35°10' E 139°46'612.0
2017-Apr-23 21:00N 35°04' E 139°44'816.8
2017-Apr-23 20:30N 34°58' E 139°37'1817.4
2017-Apr-23 19:29N 34°48' E 139°19'  
Track history (hours):
 
Tides and Currents Weather Stations Pressure Air Temp Water Temp Dewpoint Dewpoint Depression Visibility Wind Speed Wind Dir Waves Ship Positions

Nippon Maru

Last reported at 2017-Apr-27 10:26 UTC. Time now 2017-Apr-28 02:34 UTC.
Position N 35°03' E 139°37'.

Length 166 m; draft 6.5 m.

Type: Passenger vessel. MMSI: 431302000.

Date/timePositionNaut miles runAvg speedWind from/ knotsBaromVisibWave heightAir tempDewpointWater temp
2017-Apr-27 10:26N 35°03' E 139°37'817.0
2017-Apr-27 09:59N 35°08' E 139°44'714.9
2017-Apr-27 09:30N 35°14' E 139°46'612.5
2017-Apr-27 09:00N 35°20' E 139°42'714.0
2017-Apr-27 08:31N 35°27' E 139°41'2 4.2
2017-Apr-27 08:00N 35°27' E 139°39'0 0.0
2017-Apr-27 07:30N 35°27' E 139°39'0 0.0
2017-Apr-27 07:00N 35°27' E 139°39'0 0.0
2017-Apr-27 06:30N 35°27' E 139°39'0 0.0
2017-Apr-27 06:00N 35°27' E 139°39'0 0.0
2017-Apr-27 05:30N 35°27' E 139°39'0 0.0
2017-Apr-27 05:00N 35°27' E 139°39'0 0.0
2017-Apr-27 04:30N 35°27' E 139°39'0 0.0
2017-Apr-27 04:00N 35°27' E 139°39'0 0.0
2017-Apr-27 03:30N 35°27' E 139°39'0 0.0
2017-Apr-27 03:00N 35°27' E 139°39'0 0.0
2017-Apr-27 02:30N 35°27' E 139°39'0 0.0
2017-Apr-27 02:00N 35°27' E 139°39'0 0.0
2017-Apr-27 01:30N 35°27' E 139°39'0 0.0
2017-Apr-27 01:00N 35°27' E 139°39'0 0.0
2017-Apr-27 00:30N 35°27' E 139°39'0 0.0
2017-Apr-27 00:00N 35°27' E 139°39'1 2.2
2017-Apr-26 23:30N 35°27' E 139°40'3 6.7
2017-Apr-26 23:00N 35°25' E 139°43'611.6
2017-Apr-26 22:30N 35°19' E 139°44'510.9
2017-Apr-26 22:00N 35°14' E 139°47'611.1
2017-Apr-26 21:30N 35°09' E 139°46'28 3.5
2017-Apr-26 13:24N 35°12' E 139°12'5 6.7
2017-Apr-26 12:42N 35°14' E 139°17'8 6.9
2017-Apr-26 11:31N 35°14' E 139°27'011.2
2017-Apr-26 11:30N 35°14' E 139°28'6 7.7
2017-Apr-26 10:46N 35°10' E 139°32'6 9.9
2017-Apr-26 10:11N 35°06' E 139°37'615.0
2017-Apr-26 09:49N 35°04' E 139°43'8 1.5
2017-Apr-26 04:44N 34°60' E 139°51'0 0.0
2017-Apr-26 04:26N 34°60' E 139°51'0 0.0
2017-Apr-26 03:56N 34°60' E 139°51'0 0.0
2017-Apr-26 03:26N 34°60' E 139°51'0 0.0
2017-Apr-26 02:59N 34°60' E 139°51'1 1.2
2017-Apr-26 02:27N 35°00' E 139°51'3 7.2
2017-Apr-26 02:00N 35°01' E 139°47'713.3
2017-Apr-26 01:30N 34°56' E 139°41'816.5
2017-Apr-26 01:00N 34°50' E 139°34'7 0.2
2017-Apr-24 11:16N 34°56' E 139°29'411.8
2017-Apr-24 10:54N 34°59' E 139°33'512.2
2017-Apr-24 10:31N 35°02' E 139°37'612.5
2017-Apr-24 10:00N 35°07' E 139°43'612.6
2017-Apr-24 09:30N 35°12' E 139°46'612.4
2017-Apr-24 09:00N 35°18' E 139°44'713.8
2017-Apr-24 08:31N 35°25' E 139°42'3 6.9
2017-Apr-24 08:01N 35°27' E 139°39'0 0.1
2017-Apr-24 07:30N 35°27' E 139°39'0 0.0
2017-Apr-24 07:00N 35°27' E 139°39'0 0.0
2017-Apr-24 06:29N 35°27' E 139°39'0 0.0
2017-Apr-24 05:59N 35°27' E 139°39'0 0.0
2017-Apr-24 05:29N 35°27' E 139°39'0 0.0
2017-Apr-24 04:59N 35°27' E 139°39'0 0.0
2017-Apr-24 04:29N 35°27' E 139°39'0 0.0
2017-Apr-24 03:59N 35°27' E 139°39'0 0.0
2017-Apr-24 03:29N 35°27' E 139°39'0 0.0
2017-Apr-24 02:59N 35°27' E 139°39'0 0.0
2017-Apr-24 02:29N 35°27' E 139°39'0 0.0
2017-Apr-24 01:59N 35°27' E 139°39'0 0.0
2017-Apr-24 01:29N 35°27' E 139°39'0 0.0
2017-Apr-24 00:59N 35°27' E 139°39'0 0.0
2017-Apr-24 00:28N 35°27' E 139°39'0 0.1
2017-Apr-24 00:01N 35°27' E 139°39'1 2.3
2017-Apr-23 23:31N 35°27' E 139°40'3 6.2
2017-Apr-23 23:01N 35°25' E 139°43'5 9.0
2017-Apr-23 22:31N 35°20' E 139°43'611.4
2017-Apr-23 22:00N 35°15' E 139°47'611.5
2017-Apr-23 21:30N 35°10' E 139°46'612.0
2017-Apr-23 21:00N 35°04' E 139°44'816.8
2017-Apr-23 20:30N 34°58' E 139°37'1817.4
2017-Apr-23 19:29N 34°48' E 139°19'  

Dump ship's entire track history